Latest Weather Observations for Inglewood

IDQ60801

Issued at 3:35 am EST Friday 19 September 2014 (issued every 30 minutes, with the page automatically refreshed every 10 minutes)

About weather observations | Map of weather stations | Latest weather observations for QLD | Other Formats
Station Details ID: 041097 Name: INGLEWOOD FOREST Lat: -28.34 Lon: 150.94 Height: 379.0 m
Data from the previous 72 hours. | See also: Recent months at Inglewood
Date/Time
EST
Temp
°C
App
Temp
°C
Dew
Point
Rel
Hum
%
Delta-T
°C
Wind Press
QNH
hPa
Press
MSL
hPa
Rain
since 9 am
mm
Dir
 
Spd
km/h
Gust
km/h
Spd
kts
Gust
kts
19/03:30am - - - - - SSW 13 15 7 8 - - 0.0
19/03:00am - - - - - SW 11 13 6 7 - - 0.0
19/02:30am - - - - - WSW 9 13 5 7 - - 0.0
19/02:00am - - - - - W 9 9 5 5 - - 0.0
19/01:30am - - - - - WNW 7 9 4 5 - - 0.0
19/01:00am - - - - - WSW 7 9 4 5 - - 0.0
19/12:30am - - - - - W 9 11 5 6 - - 0.0
19/12:00am - - - - - WSW 9 15 5 8 - - 0.0
 
Date/Time
EST
Temp
°C
App
Temp
°C
Dew
Point
Rel
Hum
%
Delta-T
°C
Wind Press
QNH
hPa
Press
MSL
hPa
Rain
since 9 am
mm
Dir
 
Spd
km/h
Gust
km/h
Spd
kts
Gust
kts
18/11:30pm - - - - - S 13 17 7 9 - - 0.0
18/11:00pm - - - - - S 13 17 7 9 - - 0.0
18/10:30pm - - - - - S 15 20 8 11 - - 0.0
18/10:00pm - - - - - S 15 19 8 10 - - 0.0
18/09:30pm - - - - - SSW 13 17 7 9 - - 0.0
18/09:00pm - - - - - SSW 13 13 7 7 - - 0.0
18/08:30pm - - - - - SSW 13 15 7 8 - - 0.0
18/08:00pm - - - - - SSW 13 17 7 9 - - 0.0
18/07:30pm - - - - - SW 15 19 8 10 - - 0.0
18/07:00pm - - - - - SSW 13 17 7 9 - - 0.0
18/06:30pm - - - - - SW 11 15 6 8 - - 0.0
18/06:00pm - - - - - SW 11 15 6 8 - - 0.0
18/05:30pm - - - - - SW 15 24 8 13 - - 0.0
18/05:00pm - - - - - SSW 15 26 8 14 - - 0.0
18/04:30pm - - - - - SW 15 28 8 15 - - 0.0
18/04:00pm - - - - - SW 15 24 8 13 - - 0.0
18/03:30pm - - - - - SSW 19 33 10 18 - - 0.0
18/03:00pm - - - - - SW 20 32 11 17 - - 0.0
18/02:30pm - - - - - SSW 22 30 12 16 - - 0.0
18/02:00pm - - - - - WSW 11 20 6 11 - - 0.0
18/01:30pm - - - - - SSW 19 28 10 15 - - 0.0
18/01:00pm - - - - - SSW 20 32 11 17 - - 0.0
18/12:30pm - - - - - WSW 19 28 10 15 - - 0.0
18/12:00pm - - - - - SSW 22 37 12 20 - - 0.0
18/11:30am - - - - - SW 20 37 11 20 - - 0.0
18/11:00am - - - - - SSW 20 33 11 18 - - 0.0
18/10:30am - - - - - SW 20 33 11 18 - - 0.0
18/10:00am - - - - - SW 20 35 11 19 - - 0.0
18/09:30am - - - - - SSW 17 28 9 15 - - 0.0
18/09:00am - - - - - SSE 15 24 8 13 - - 0.0
18/08:30am - - - - - SSE 15 24 8 13 - - 0.0
18/08:00am - - - - - SW 7 11 4 6 - - 0.0
18/07:30am - - - - - W 7 11 4 6 - - 0.0
18/07:00am - - - - - WSW 9 13 5 7 - - 0.0
18/06:30am - - - - - W 11 15 6 8 - - 0.0
18/06:00am - - - - - W 11 13 6 7 - - 0.0
18/05:30am - - - - - WNW 11 15 6 8 - - 0.0
18/05:00am - - - - - WNW 11 13 6 7 - - 0.0
18/04:30am - - - - - WSW 11 15 6 8 - - 0.0
18/04:00am - - - - - SW 11 13 6 7 - - 0.0
18/03:30am - - - - - SSW 11 13 6 7 - - 0.0
18/03:00am - - - - - SSW 11 13 6 7 - - 0.0
18/02:30am - - - - - SSW 13 15 7 8 - - 0.0
18/02:00am - - - - - S 13 17 7 9 - - 0.0
18/01:30am - - - - - S 13 17 7 9 - - 0.0
18/01:00am - - - - - SSW 13 17 7 9 - - 0.0
18/12:30am - - - - - SSW 13 17 7 9 - - 0.0
18/12:00am - - - - - SSW 13 15 7 8 - - 0.0
 
Date/Time
EST
Temp
°C
App
Temp
°C
Dew
Point
Rel
Hum
%
Delta-T
°C
Wind Press
QNH
hPa
Press
MSL
hPa
Rain
since 9 am
mm
Dir
 
Spd
km/h
Gust
km/h
Spd
kts
Gust
kts
17/11:30pm - - - - - SW 11 13 6 7 - - 0.0
17/11:00pm - - - - - SSW 11 15 6 8 - - 0.0
17/10:30pm - - - - - SSW 11 13 6 7 - - 0.0
17/10:00pm - - - - - SSW 13 15 7 8 - - 0.0
17/09:30pm - - - - - S 13 17 7 9 - - 0.0
17/09:00pm - - - - - S 13 17 7 9 - - 0.0
17/08:30pm - - - - - S 13 17 7 9 - - 0.0
17/08:00pm - - - - - S 13 17 7 9 - - 0.0
17/07:30pm - - - - - SSW 13 17 7 9 - - 0.0
17/07:00pm - - - - - SW 13 17 7 9 - - 0.0
17/06:30pm - - - - - SW 11 17 6 9 - - 0.0
17/06:00pm - - - - - SW 11 15 6 8 - - 0.0
17/05:30pm - - - - - WSW 13 20 7 11 - - 0.0
17/05:00pm - - - - - WSW 17 28 9 15 - - 0.0
17/04:30pm - - - - - WSW 20 33 11 18 - - 0.0
17/04:00pm - - - - - SW 19 41 10 22 - - 0.0
17/03:30pm - - - - - WSW 19 28 10 15 - - 0.0
17/03:00pm - - - - - WSW 22 37 12 20 - - 0.0
17/02:30pm - - - - - W 28 39 15 21 - - 0.0
17/02:00pm - - - - - WSW 22 37 12 20 - - 0.0
17/01:30pm - - - - - W 24 37 13 20 - - 0.0
17/01:00pm - - - - - W 19 35 10 19 - - 0.0
17/12:30pm - - - - - WSW 22 35 12 19 - - 0.0
17/12:00pm - - - - - W 24 37 13 20 - - 0.0
17/11:30am - - - - - W 19 35 10 19 - - 0.0
17/11:00am - - - - - SW 19 32 10 17 - - 0.0
17/10:30am - - - - - SSW 17 22 9 12 - - 0.0
17/10:00am - - - - - WSW 9 17 5 9 - - 0.0
17/09:30am - - - - - WSW 9 13 5 7 - - 0.0
17/09:00am - - - - - W 11 17 6 9 - - -
17/08:30am - - - - - W 13 17 7 9 - - -
17/08:00am - - - - - W 13 17 7 9 - - -
17/07:30am - - - - - WNW 11 17 6 9 - - -
17/07:00am - - - - - NW 13 17 7 9 - - -
17/06:30am - - - - - NW 15 19 8 10 - - -
17/06:00am - - - - - NW 15 19 8 10 - - -
17/05:30am - - - - - NW 15 17 8 9 - - -
17/05:00am - - - - - NW 15 19 8 10 - - -
17/04:30am - - - - - NW 15 17 8 9 - - -
17/04:00am - - - - - WNW 11 13 6 7 - - -
17/03:30am - - - - - WNW 9 13 5 7 - - -
17/03:00am - - - - - SSW 9 11 5 6 - - 0.0
17/02:30am - - - - - S 15 20 8 11 - - -
17/02:00am - - - - - S 15 20 8 11 - - -
17/01:30am - - - - - S 17 19 9 10 - - -
17/01:00am - - - - - S 13 15 7 8 - - -
17/12:30am - - - - - S 13 15 7 8 - - -
17/12:00am - - - - - S 13 17 7 9 - - -
 
Date/Time
EST
Temp
°C
App
Temp
°C
Dew
Point
Rel
Hum
%
Delta-T
°C
Wind Press
QNH
hPa
Press
MSL
hPa
Rain
since 9 am
mm
Dir
 
Spd
km/h
Gust
km/h
Spd
kts
Gust
kts
16/11:30pm - - - - - S 11 17 6 9 - - -
16/11:00pm - - - - - S 13 20 7 11 - - -
16/10:30pm - - - - - SSW 15 20 8 11 - - -
16/10:00pm - - - - - SSW 13 20 7 11 - - -
16/09:30pm - - - - - SSW 15 22 8 12 - - -
16/09:00pm - - - - - SW 13 22 7 12 - - 0.0
16/08:30pm - - - - - SW 13 17 7 9 - - -
16/08:00pm - - - - - WSW 13 19 7 10 - - -
16/07:30pm - - - - - WSW 17 22 9 12 - - -
16/07:00pm - - - - - WSW 13 17 7 9 - - -
16/06:30pm - - - - - WSW 17 24 9 13 - - -
16/06:00pm - - - - - WSW 15 26 8 14 - - -
16/05:30pm - - - - - WSW 17 35 9 19 - - -
16/05:00pm - - - - - W 22 39 12 21 - - -
16/04:30pm - - - - - W 24 39 13 21 - - -
16/04:00pm - - - - - W 24 41 13 22 - - -
16/03:30pm - - - - - W 26 48 14 26 - - -
16/03:22pm - - - - - W 28 48 15 26 - - -
16/02:30pm - - - - - WSW 26 39 14 21 - - 0.0
16/02:00pm - - - - - W 28 54 15 29 - - 0.0
16/01:49pm - - - - - W 28 48 15 26 - - 0.0
16/01:30pm - - - - - W 26 39 14 21 - - 0.0
16/01:00pm - - - - - WNW 22 43 12 23 - - 0.0
16/12:46pm - - - - - W 28 46 15 25 - - 0.0
16/12:30pm - - - - - WNW 26 41 14 22 - - 0.0
16/12:00pm - - - - - WSW 24 37 13 20 - - 0.0
16/11:30am - - - - - WNW 17 26 9 14 - - 0.0
16/11:00am - - - - - NW 13 24 7 13 - - 0.0
16/10:30am - - - - - NNW 20 28 11 15 - - 0.0
16/10:00am - - - - - WNW 13 22 7 12 - - 0.0
16/09:30am - - - - - NNW 17 26 9 14 - - 0.0
16/09:00am - - - - - NNW 15 26 8 14 - - 0.0
16/08:30am - - - - - NW 20 30 11 16 - - 0.0
16/08:00am - - - - - NW 17 32 9 17 - - 0.0
16/07:30am - - - - - NNW 17 30 9 16 - - 0.0
16/07:00am - - - - - NNW 19 32 10 17 - - 0.0
16/06:30am - - - - - N 20 35 11 19 - - 0.0
16/06:00am - - - - - NNW 20 35 11 19 - - 0.0
16/05:30am - - - - - N 20 33 11 18 - - 0.0
16/05:00am - - - - - N 17 26 9 14 - - 0.0
16/04:30am - - - - - N 19 33 10 18 - - 0.0
16/04:00am - - - - - N 19 30 10 16 - - 0.0

Other Formats:

Comma delimited format used in spreadsheet applications
http://www.bom.gov.au/fwo/IDQ60801/IDQ60801.95573.axf

JavaScript Object Notation format (JSON) in row-major order
http://www.bom.gov.au/fwo/IDQ60801/IDQ60801.95573.json